10 août 2022

Temps Code Temps Temp. Vue Base cloud Vent METAR/SPECI
8:00 pm
V
66 °F 15 mi 3.700 ft 090° 090° 3 kt METAR CYCD 110300Z 09003KT 050V120 15SM BKN037 19/17 A3007 RMK SC8 PRESRR SLP184 DENSITY ALT 500FT

9 août 2022

Temps Code Temps Temp. Vue Base cloud Vent METAR/SPECI
9:00 pm
V
73 °F 30 mi 24.000 ft Var 000° 0 kt METAR CYCD 100400Z 00000KT 30SM SCT160 BKN240 23/17 A2986 RMK AC3CI2 LAST STFD OBS/NEXT 101300Z SLP113 DENSITY ALT 1100FT
8:00 pm
V
77 °F 30 mi - Var 000° 0 kt METAR CYCD 100300Z 00000KT 30SM FEW140 SCT240 25/17 A2985 RMK AC2CI1 SLP111 DENSITY ALT 1400FT
7:00 pm
V
81 °F 30 mi - 150° 150° 5 kt METAR CYCD 100200Z 15005KT 080V180 30SM FEW170 SCT240 27/17 A2986 RMK ACC2CI1 SLP113 DENSITY ALT 1600FT
6:00 pm
V
82 °F 30 mi - 040° 040° 3 kt METAR CYCD 100100Z 04003KT 010V110 30SM FEW170 SCT240 28/17 A2987 RMK ACC2CI1 SLP115 DENSITY ALT 1700FT
5:00 pm
V
82 °F 30 mi - 050° 050° 4 kt METAR CYCD 100000Z 05004KT 30SM SCT170 SCT240 28/17 A2988 RMK AC3CI1 SLP119 DENSITY ALT 1700FT
4:00 pm
V
84 °F 30 mi - 050° 050° 6 kt METAR CYCD 092300Z 05006KT 030V140 30SM SCT170 SCT240 29/17 A2988 RMK ACC3CI1 SLP121 DENSITY ALT 1800FT
3:00 pm
V
82 °F 30 mi - Var Var 3 kt METAR CYCD 092200Z VRB03KT 30SM SCT170 SCT240 28/17 A2990 RMK ACC3CI1 SLP126 DENSITY ALT 1700FT
2:00 pm
V
81 °F 30 mi - Var Var 5 kt METAR CYCD 092100Z VRB05KT 30SM SCT170 SCT240 27/16 A2992 RMK ACC3CI1 SLP133 DENSITY ALT 1500FT
1:00 pm
V
82 °F 25 mi - 020° 020° 3 kt METAR CYCD 092000Z 02003KT 25SM SCT150 SCT200 28/17 A2992 RMK AC3CI1 SLP133 DENSITY ALT 1600FT
12:00 pm
V
81 °F 25 mi - Var Var 5 kt METAR CYCD 091900Z VRB05KT 25SM SCT150 27/16 A2993 RMK AC3 SLP137 DENSITY ALT 1500FT
11:00 am
V
75 °F 25 mi 15.000 ft 350° 350° 3 kt METAR CYCD 091800Z 35003KT 330V050 25SM BKN150 24/15 A2995 RMK AC6 SLP144 DENSITY ALT 1200FT
10:00 am
V
73 °F 25 mi - Var 000° 0 kt METAR CYCD 091700Z 00000KT 25SM SCT150 23/16 A2996 RMK ACC2 SLP146 DENSITY ALT 1000FT
9:00 am
V
70 °F 25 mi - 080° 080° 4 kt METAR CYCD 091600Z 08004KT 010V090 25SM SCT160 21/15 A2996 RMK ACC3 SLP148 DENSITY ALT 800FT
8:00 am
V
66 °F 30 mi - Var 000° 0 kt METAR CYCD 091500Z 00000KT 30SM FEW030 19/15 A2997 RMK CU1 SLP150 DENSITY ALT 600FT
7:00 am
V
59 °F 30 mi - Var 000° 0 kt METAR CYCD 091400Z 00000KT 30SM FEW030 FEW080 15/15 A2996 RMK CU1AC1 AC TR SLP148 DENSITY ALT 100FT
6:00 am
V
57 °F 30 mi - Var 000° 0 kt METAR CYCD 091300Z 00000KT 30SM FEW220 14/14 A2995 RMK CI1 SLP145
Données plus anciennes

Nous et des tiers suivons ton comportement sur Internet sur notre site Web à l'aide de cookies. Si tu continues, nous supposons que tu acceptes notre politique en matière de cookies. Apprendre plus